Time;durP1;ratioP1;P1;durP2;ratioP2;P2;SDS_P1;SDS_P2;PMS_P1;PMS_P2;Temp;Humidity;BMP_temperature;BMP_pressure;BME280_temperature;BME280_humidity;BME280_pressure;Samples;Min_cycle;Max_cycle;Signal;HPM_P1;HPM_P2
2023/03/11 00:00:49;;;;;;;2.05;1.85;;;7.80;61.00;;;2.85;82.14;94464.31;4924039;29;20028;-49
2023/03/11 00:03:18;;;;;;;4.07;2.25;;;7.80;61.00;;;2.89;82.70;94468.88;4941001;28;20034;-53
2023/03/11 00:05:46;;;;;;;5.82;2.08;;;7.80;61.00;;;2.81;81.67;94487.69;4915668;29;20031;-50
2023/03/11 00:08:17;;;;;;;5.78;2.00;;;7.70;60.90;;;2.82;82.39;94512.97;4933194;29;20051;-52
2023/03/11 00:10:52;;;;;;;2.00;1.80;;;7.80;60.90;;;2.82;82.02;94510.34;4934298;29;20030;-49
2023/03/11 00:13:18;;;;;;;3.72;2.38;;;7.80;60.90;;;2.73;81.62;94512.56;4934222;29;20411;-48
2023/03/11 00:15:49;;;;;;;2.47;1.90;;;7.70;60.70;;;2.81;82.19;94497.41;4935490;29;20385;-50
2023/03/11 00:18:17;;;;;;;5.40;1.80;;;7.70;60.80;;;2.77;82.73;94494.47;4930643;29;20674;-50
2023/03/11 00:20:45;;;;;;;1.85;1.63;;;7.70;60.80;;;2.71;82.79;94506.75;4917421;29;20409;-52
2023/03/11 00:23:14;;;;;;;3.20;2.15;;;7.70;60.80;;;2.67;84.43;94510.91;4918487;29;20374;-50
2023/03/11 00:25:49;;;;;;;3.88;2.20;;;7.60;60.80;;;2.59;83.77;94506.03;4932906;29;20027;-50
2023/03/11 00:28:19;;;;;;;2.90;2.58;;;7.60;60.80;;;2.55;84.55;94512.81;4934777;29;20031;-56
2023/03/11 00:30:46;;;;;;;2.47;2.03;;;7.60;60.90;;;2.51;85.29;94511.72;4933784;29;20026;-54
2023/03/11 00:33:14;;;;;;;2.20;2.00;;;7.50;60.90;;;2.43;84.80;94501.59;4918121;29;20035;-51
2023/03/11 00:35:44;;;;;;;3.65;2.10;;;7.50;60.90;;;2.48;85.62;94502.47;4933749;29;20019;-54
2023/03/11 00:38:17;;;;;;;3.63;2.10;;;7.50;61.00;;;2.42;85.27;94489.50;4932582;29;20042;-51
2023/03/11 00:40:48;;;;;;;1.98;1.80;;;7.40;61.10;;;2.46;85.70;94498.50;4934739;28;20078;-49
2023/03/11 00:43:17;;;;;;;2.50;2.20;;;7.40;61.20;;;2.51;86.27;94499.38;4951866;28;20029;-50
2023/03/11 00:45:46;;;;;;;3.85;2.00;;;7.40;61.30;;;2.46;85.69;94509.81;4972503;28;20041;-52
2023/03/11 00:48:13;;;;;;;2.83;2.13;;;7.40;61.30;;;2.38;86.26;94512.03;4955676;28;20022;-50
2023/03/11 00:50:46;;;;;;;3.40;2.40;;;7.40;61.30;;;2.37;86.68;94518.31;4935850;28;20022;-50
2023/03/11 00:53:12;;;;;;;2.97;2.40;;;7.30;61.20;;;2.36;87.22;94514.91;4953134;28;20037;-54
2023/03/11 00:55:43;;;;;;;2.90;2.33;;;7.30;61.30;;;2.33;86.78;94511.97;4926887;28;20019;-50
2023/03/11 00:58:11;;;;;;;4.93;2.50;;;7.30;61.40;;;2.32;86.82;94500.66;4939861;28;20434;-55
2023/03/11 01:00:41;;;;;;;2.83;2.25;;;7.30;61.40;;;2.24;86.60;94509.72;4935461;28;20034;-50
2023/03/11 01:03:07;;;;;;;3.25;2.20;;;7.20;61.40;;;2.29;88.17;94509.81;4935876;28;20034;-52
2023/03/11 01:05:34;;;;;;;3.22;2.28;;;7.20;61.50;;;2.25;87.85;94507.88;4920151;28;20061;-54
2023/03/11 01:08:02;;;;;;;5.00;2.50;;;7.20;61.50;;;2.21;88.39;94525.97;4950883;28;20054;-49
2023/03/11 01:10:34;;;;;;;4.07;2.33;;;7.20;61.60;;;2.21;88.29;94498.88;4936632;28;20479;-50
2023/03/11 01:13:00;;;;;;;3.88;2.53;;;7.10;61.50;;;2.19;88.75;94509.63;4926932;28;20541;-51
2023/03/11 01:15:36;;;;;;;3.53;2.67;;;7.10;61.60;;;2.25;88.68;94507.88;4949545;28;20031;-49
2023/03/11 01:18:05;;;;;;;3.83;2.70;;;7.10;61.60;;;2.19;87.48;94500.94;4949845;28;20377;-49
2023/03/11 01:20:37;;;;;;;7.25;2.75;;;7.10;61.70;;;2.16;88.16;94502.22;4938768;28;20020;-48
2023/03/11 01:23:09;;;;;;;3.00;2.70;;;7.10;61.70;;;2.12;88.15;94489.81;4936372;28;20037;-49
2023/03/11 01:25:36;;;;;;;3.38;2.50;;;7.10;61.80;;;2.09;88.19;94505.00;4935700;28;20022;-51
2023/03/11 01:28:07;;;;;;;4.95;2.70;;;7.10;61.80;;;2.07;88.56;94498.41;4948563;28;20473;-49
2023/03/11 01:30:37;;;;;;;4.45;2.65;;;7.00;61.70;;;2.08;89.73;94482.41;4951676;28;20033;-49
2023/03/11 01:33:06;;;;;;;4.07;2.95;;;7.00;61.80;;;2.06;89.45;94487.09;4932748;28;20117;-49
2023/03/11 01:35:35;;;;;;;4.40;3.25;;;7.00;61.90;;;2.03;89.16;94481.50;4953087;28;20050;-49
2023/03/11 01:38:04;;;;;;;4.47;3.40;;;7.00;61.90;;;1.99;89.13;94494.34;4951642;28;20077;-52
2023/03/11 01:40:52;;;;;;;4.10;3.00;;;7.00;62.00;;;2.01;89.63;94481.75;4936699;28;20043;-50
2023/03/11 01:43:45;;;;;;;3.28;2.83;;;7.00;62.10;;;2.04;90.33;94483.91;4910561;29;20069;-51
2023/03/11 01:46:57;;;;;;;5.38;3.55;;;6.90;62.10;;;1.96;89.23;94507.94;4934010;29;20082;-50
2023/03/11 01:49:23;;;;;;;6.75;3.75;;;6.90;62.20;;;1.96;89.68;94489.56;4892280;29;20035;-48
2023/03/11 01:52:09;;;;;;;6.07;3.17;;;6.90;62.30;;;1.98;89.82;94486.69;4909589;29;20641;-51
2023/03/11 01:54:41;;;;;;;3.70;3.20;;;6.90;62.30;;;1.98;90.04;94481.44;4914615;29;20023;-54
2023/03/11 01:57:13;;;;;;;;;;;6.80;62.40;;;1.96;90.00;94473.78;4934255;28;20039;-49
2023/03/11 01:59:52;;;;;;;5.78;3.33;;;6.80;62.30;;;1.91;89.86;94468.44;4916502;29;19913;-51
2023/03/11 02:02:47;;;;;;;4.25;3.40;;;6.80;62.40;;;1.89;90.20;94473.16;4927087;28;20022;-48
2023/03/11 02:05:13;;;;;;;4.68;3.35;;;6.80;62.40;;;1.87;89.54;94493.59;4930862;29;20050;-49
2023/03/11 02:07:48;;;;;;;3.83;3.38;;;6.80;62.40;;;1.85;90.40;94480.72;4897432;29;20024;-49
2023/03/11 02:10:15;;;;;;;3.90;3.10;;;6.80;62.40;;;1.83;89.81;94476.72;4933412;29;20041;-54
2023/03/11 02:12:49;;;;;;;4.40;3.58;;;6.70;62.50;;;1.80;90.39;94485.88;4914990;29;20041;-50
2023/03/11 02:15:15;;;;;;;3.67;3.10;;;6.80;62.50;;;1.80;90.37;94482.44;4916139;29;20034;-52
2023/03/11 02:17:43;;;;;;;4.80;3.40;;;6.70;62.50;;;1.72;90.01;94493.31;4916233;29;20031;-51
2023/03/11 02:20:39;;;;;;;3.88;2.80;;;6.70;62.50;;;1.74;91.02;94496.53;4921387;28;20019;-50
2023/03/11 02:23:05;;;;;;;7.55;3.05;;;6.70;62.50;;;1.76;90.33;94491.84;4929010;29;20050;-53
2023/03/11 02:26:17;;;;;;;4.97;3.60;;;6.70;62.50;;;1.75;90.45;94462.13;4932672;28;20171;-53
2023/03/11 02:28:47;;;;;;;4.97;3.47;;;6.70;62.50;;;1.78;90.47;94477.41;4927801;29;20075;-50
2023/03/11 02:31:15;;;;;;;4.15;3.08;;;6.70;62.50;;;1.79;90.69;94483.50;4909522;29;20027;-50
2023/03/11 02:33:47;;;;;;;3.97;3.17;;;6.70;62.50;;;1.72;90.99;94480.19;4891853;29;20028;-49
2023/03/11 02:36:41;;;;;;;3.90;3.28;;;6.70;62.50;;;1.76;91.52;94476.09;4930940;29;20065;-54
2023/03/11 02:39:09;;;;;;;5.00;3.10;;;6.70;62.50;;;1.75;91.07;94479.72;4901997;28;20050;-55
2023/03/11 02:41:46;;;;;;;3.88;3.28;;;6.60;62.50;;;1.69;90.93;94486.72;4912773;29;20034;-49
2023/03/11 02:44:15;;;;;;;5.07;3.40;;;6.70;62.60;;;1.68;91.52;94508.75;4924573;29;20060;-49
2023/03/11 02:46:47;;;;;;;3.80;3.20;;;6.60;62.50;;;1.67;92.05;94511.63;4926861;28;20026;-51
2023/03/11 02:49:16;;;;;;;3.60;3.00;;;6.60;62.50;;;1.72;91.92;94506.44;4937157;28;20109;-51
2023/03/11 02:51:49;;;;;;;5.32;3.30;;;6.60;62.50;;;1.72;92.10;94506.44;4950927;28;20039;-52
2023/03/11 02:54:15;;;;;;;4.47;3.53;;;6.60;62.50;;;1.73;91.94;94508.06;4920437;29;20100;-50
2023/03/11 02:56:44;;;;;;;4.55;3.30;;;6.60;62.50;;;1.70;91.93;94503.28;4942791;28;20035;-49
2023/03/11 02:59:10;;;;;;;6.25;3.58;;;6.70;62.60;;;1.71;92.31;94499.63;4932324;29;20019;-52
2023/03/11 03:01:36;;;;;;;4.93;3.45;;;6.60;62.60;;;1.72;92.21;94501.19;4910559;29;20391;-51
2023/03/11 03:04:02;;;;;;;4.07;3.30;;;6.60;62.60;;;1.69;92.93;94491.16;4901706;29;20032;-51
2023/03/11 03:06:27;;;;;;;4.20;3.20;;;6.60;62.60;;;1.71;92.88;94494.38;4912717;29;20027;-50
2023/03/11 03:08:55;;;;;;;5.05;3.15;;;6.60;62.60;;;1.71;92.92;94503.03;4932578;29;20027;-52
2023/03/11 03:11:23;;;;;;;5.22;3.88;;;6.60;62.60;;;1.66;93.17;94497.72;4932331;29;20097;-49
2023/03/11 03:13:52;;;;;;;4.25;3.35;;;6.70;62.70;;;1.64;93.30;94494.50;4936912;28;20093;-49
2023/03/11 03:16:21;;;;;;;5.82;3.63;;;6.60;62.60;;;1.63;93.52;94492.94;4923909;29;20025;-51
2023/03/11 03:18:47;;;;;;;4.10;3.22;;;6.60;62.60;;;1.66;93.61;94491.63;4915282;29;20031;-49
2023/03/11 03:21:15;;;;;;;3.95;3.25;;;6.60;62.70;;;1.62;93.06;94505.22;4926378;28;20049;-51
2023/03/11 03:23:44;;;;;;;4.15;3.53;;;6.60;62.70;;;1.62;93.86;94505.22;4918417;29;20042;-49
2023/03/11 03:26:13;;;;;;;7.00;4.35;;;6.60;62.70;;;1.64;94.22;94501.59;4935179;29;20019;-48
2023/03/11 03:28:39;;;;;;;5.75;3.80;;;6.60;62.80;;;1.64;94.61;94512.88;4907875;29;20261;-51
2023/03/11 03:31:12;;;;;;;5.60;3.92;;;6.60;62.90;;;1.62;94.74;94499.97;4932583;29;20474;-52
2023/03/11 03:33:37;;;;;;;5.82;4.25;;;6.60;63.00;;;1.56;95.36;94506.16;4919304;29;20031;-55
2023/03/11 03:36:14;;;;;;;7.07;4.70;;;6.60;62.90;;;1.54;94.78;94492.50;4931711;29;20034;-51
2023/03/11 03:38:40;;;;;;;6.25;4.03;;;6.60;62.90;;;1.51;95.48;94489.56;4899335;29;20041;-49
2023/03/11 03:41:07;;;;;;;5.55;4.30;;;6.50;62.90;;;1.50;96.01;94483.47;4949713;29;20102;-51
2023/03/11 03:43:33;;;;;;;6.93;4.20;;;6.50;62.90;;;1.54;96.26;94481.22;4949829;29;20058;-48
2023/03/11 03:46:05;;;;;;;7.43;4.68;;;6.50;63.00;;;1.51;96.84;94479.06;4950788;29;20054;-47
2023/03/11 03:48:32;;;;;;;7.32;4.53;;;6.50;63.20;;;1.48;96.93;94480.31;4930304;29;20114;-46
2023/03/11 03:51:09;;;;;;;6.88;4.82;;;6.50;63.20;;;1.42;97.08;94489.13;4917668;29;20054;-49
2023/03/11 03:53:36;;;;;;;6.65;4.60;;;6.40;63.20;;;1.38;97.91;94499.28;4933727;29;20129;-50
2023/03/11 03:56:12;;;;;;;8.82;4.65;;;6.40;63.20;;;1.40;98.42;94514.78;4921239;29;20440;-54
2023/03/11 03:58:38;;;;;;;7.88;4.85;;;6.40;63.30;;;1.33;98.45;94493.94;4949548;29;20023;-47
2023/03/11 04:01:09;;;;;;;6.50;4.75;;;6.30;63.30;;;1.35;98.68;94493.72;4938816;28;20069;-52
2023/03/11 04:03:41;;;;;;;7.60;4.68;;;6.40;63.50;;;1.34;98.74;94506.00;4944211;29;20133;-48
2023/03/11 04:06:23;;;;;;;7.75;4.95;;;6.30;63.50;;;1.33;98.40;94507.06;4911163;29;20081;-50
2023/03/11 04:08:52;;;;;;;7.25;4.88;;;6.30;63.60;;;1.27;99.00;94510.59;4961795;28;20500;-48
2023/03/11 04:11:36;;;;;;;6.18;4.65;;;6.30;63.60;;;1.27;99.22;94522.94;4946691;29;20026;-48
2023/03/11 04:14:06;;;;;;;10.77;4.38;;;6.30;63.60;;;1.28;99.40;94527.13;4945393;29;20396;-49
2023/03/11 04:16:35;;;;;;;6.25;4.60;;;6.20;63.60;;;1.17;99.04;94520.13;4946235;29;20105;-48
2023/03/11 04:19:01;;;;;;;6.97;4.78;;;6.20;64.40;;;1.13;99.22;94519.78;4942343;29;20049;-48
2023/03/11 04:21:26;;;;;;;6.00;4.22;;;6.20;63.50;;;1.12;99.67;94515.53;4949147;29;20035;-48
2023/03/11 04:23:52;;;;;;;6.53;4.82;;;6.10;63.50;;;1.05;99.05;94507.00;4949660;29;20034;-47
2023/03/11 04:26:19;;;;;;;9.60;5.07;;;6.10;63.50;;;0.98;99.51;94511.59;4931115;29;20037;-49
2023/03/11 04:28:47;;;;;;;6.50;4.85;;;6.10;63.50;;;0.94;99.42;94511.25;4948133;29;20371;-52
2023/03/11 04:31:16;;;;;;;7.07;5.10;;;6.10;63.60;;;0.91;99.06;94509.09;4946958;28;20057;-47
2023/03/11 04:33:42;;;;;;;7.82;4.63;;;6.00;63.60;;;0.86;99.27;94496.66;4948018;29;20026;-49
2023/03/11 04:36:12;;;;;;;8.35;4.88;;;6.00;63.60;;;0.80;99.62;94499.41;4947106;29;20031;-47
2023/03/11 04:38:41;;;;;;;34.10;5.88;;;5.90;63.60;;;0.77;100.00;94497.25;4946914;28;20043;-49
2023/03/11 04:41:07;;;;;;;8.73;5.45;;;5.90;63.70;;;0.72;100.00;94510.22;4951246;28;20030;-49
2023/03/11 04:43:36;;;;;;;11.05;4.90;;;5.80;63.60;;;0.67;100.00;94514.34;4965245;28;20022;-48
2023/03/11 04:46:08;;;;;;;8.30;5.32;;;5.80;63.80;;;0.63;100.00;94512.41;4950489;28;20263;-48
2023/03/11 04:48:34;;;;;;;7.23;5.03;;;5.80;63.90;;;0.60;100.00;94505.00;4928344;28;20093;-48
2023/03/11 04:51:00;;;;;;;19.33;5.88;;;5.80;63.90;;;0.58;100.00;94512.28;4939460;28;20034;-47
2023/03/11 04:53:29;;;;;;;13.02;5.57;;;5.70;63.90;;;0.54;100.00;94517.19;4929094;28;20552;-48
2023/03/11 04:55:55;;;;;;;9.95;5.65;;;5.70;64.00;;;0.55;100.00;94529.28;4939026;28;20027;-48
2023/03/11 04:58:21;;;;;;;8.38;5.38;;;5.70;64.00;;;0.51;100.00;94528.13;4944164;28;20617;-47
2023/03/11 05:00:49;;;;;;;11.95;5.57;;;5.70;64.10;;;0.51;100.00;94536.00;4945365;28;20111;-52
2023/03/11 05:03:15;;;;;;;10.27;6.30;;;5.70;64.10;;;0.47;100.00;94534.88;4937043;28;20030;-49
2023/03/11 05:05:41;;;;;;;11.98;6.15;;;5.70;64.10;;;0.42;100.00;94542.59;4938324;28;20029;-50
2023/03/11 05:08:12;;;;;;;32.15;7.35;;;5.70;64.20;;;0.39;100.00;94543.06;4955640;28;20088;-51
2023/03/11 05:10:41;;;;;;;46.53;8.10;;;5.70;64.20;;;0.36;100.00;94541.66;4948022;28;20051;-51
2023/03/11 05:13:08;;;;;;;12.13;6.57;;;5.60;64.20;;;0.40;100.00;94542.00;4944305;28;20027;-49
2023/03/11 05:15:39;;;;;;;11.65;6.88;;;5.60;64.20;;;0.42;100.00;94539.97;4933972;28;20031;-48
2023/03/11 05:18:07;;;;;;;10.82;6.57;;;5.60;64.40;;;0.41;100.00;94547.03;4951854;28;20058;-51
2023/03/11 05:20:33;;;;;;;85.85;9.98;;;5.60;64.40;;;0.40;100.00;94548.03;4949835;28;20371;-51
2023/03/11 05:23:03;;;;;;;23.05;6.53;;;5.50;64.40;;;0.35;100.00;94553.19;4950986;28;20062;-50
2023/03/11 05:25:35;;;;;;;20.98;6.45;;;5.60;64.60;;;0.34;100.00;94559.44;4951014;28;20026;-48
2023/03/11 05:28:01;;;;;;;65.18;9.10;;;5.50;64.60;;;0.34;100.00;94556.00;4952396;28;20035;-48
2023/03/11 05:30:27;;;;;;;11.88;6.35;;;5.50;64.50;;;0.36;100.00;94559.22;4933337;28;20117;-51
2023/03/11 05:32:55;;;;;;;9.98;6.85;;;5.50;64.60;;;0.38;100.00;94554.56;4973367;28;20041;-48
2023/03/11 05:35:29;;;;;;;11.48;6.95;;;5.50;64.70;;;0.35;100.00;94555.81;4951672;28;20102;-50
2023/03/11 05:37:58;;;;;;;14.25;7.80;;;5.50;64.80;;;0.29;100.00;94554.09;4917719;28;20484;-50
2023/03/11 05:40:24;;;;;;;10.70;6.50;;;5.50;64.80;;;0.32;100.00;94553.63;4901414;29;20658;-49
2023/03/11 05:43:05;;;;;;;48.97;8.20;;;5.50;64.70;;;0.34;100.00;94556.00;4924520;29;20554;-48
2023/03/11 05:45:33;;;;;;;65.63;9.30;;;5.50;64.90;;;0.33;100.00;94560.47;4932808;29;20034;-48
2023/03/11 05:47:59;;;;;;;14.05;7.07;;;5.50;64.70;;;0.32;100.00;94563.31;4932424;29;20035;-48
2023/03/11 05:50:28;;;;;;;10.75;6.70;;;5.50;64.80;;;0.31;100.00;94559.88;4930368;29;20081;-50
2023/03/11 05:52:53;;;;;;;25.08;6.60;;;5.60;64.90;;;0.33;100.00;94554.44;4931981;29;20034;-49
2023/03/11 05:55:25;;;;;;;53.05;7.85;;;5.50;64.80;;;0.35;100.00;94545.31;4914244;29;20497;-48
2023/03/11 05:58:03;;;;;;;42.80;8.73;;;5.60;64.90;;;0.32;100.00;94537.91;4915194;29;20023;-48
2023/03/11 06:00:29;;;;;;;33.15;7.65;;;5.60;64.90;;;0.35;100.00;94547.94;4898979;29;20079;-52
2023/03/11 06:02:55;;;;;;;10.70;6.70;;;5.60;64.90;;;0.37;100.00;94551.13;4930086;29;20026;-49
2023/03/11 06:05:21;;;;;;;12.38;6.50;;;5.60;64.90;;;0.36;100.00;94546.13;4926599;29;20045;-50
2023/03/11 06:07:56;;;;;;;15.02;6.70;;;5.60;64.90;;;0.38;100.00;94537.00;4923043;29;20038;-49
2023/03/11 06:10:22;;;;;;;12.43;6.25;;;5.60;64.90;;;0.37;100.00;94537.22;4932008;29;20027;-50
2023/03/11 06:12:51;;;;;;;18.90;5.10;;;5.60;65.00;;;0.35;100.00;94549.78;4930270;29;20098;-50
2023/03/11 06:15:17;;;;;;;8.93;4.80;;;5.60;65.00;;;0.39;100.00;94556.16;4931604;29;20050;-53
2023/03/11 06:17:45;;;;;;;7.28;4.53;;;5.50;65.00;;;0.35;100.00;94557.63;4932362;29;20118;-50
2023/03/11 06:20:12;;;;;;;8.40;4.20;;;5.50;65.00;;;0.33;100.00;94564.91;4913745;29;21129;-52
2023/03/11 06:22:38;;;;;;;7.10;4.00;;;5.60;65.10;;;0.30;100.00;94563.53;4921623;29;20023;-52
2023/03/11 06:25:04;;;;;;;8.10;4.43;;;5.50;65.10;;;0.25;100.00;94559.97;4924271;29;20354;-49
2023/03/11 06:27:30;;;;;;;6.32;3.60;;;5.50;65.10;;;0.23;100.00;94568.09;4928493;29;20030;-50
2023/03/11 06:29:56;;;;;;;7.25;3.95;;;5.50;65.10;;;0.19;100.00;94585.28;4927432;29;20033;-52
2023/03/11 06:32:25;;;;;;;9.18;4.22;;;5.40;65.00;;;0.19;100.00;94590.50;4928556;29;20026;-52
2023/03/11 06:34:54;;;;;;;9.90;4.28;;;5.40;65.10;;;0.20;100.00;94584.25;4910259;29;20022;-52
2023/03/11 06:37:24;;;;;;;7.80;3.88;;;5.40;65.90;;;0.22;100.00;94592.69;4908173;29;20419;-52
2023/03/11 06:39:53;;;;;;;8.32;4.05;;;5.40;65.20;;;0.19;100.00;94609.63;4917123;28;20042;-53
2023/03/11 06:42:23;;;;;;;9.25;4.03;;;5.40;65.30;;;0.21;100.00;94612.81;4929403;28;20098;-49
2023/03/11 06:44:49;;;;;;;4.75;3.35;;;5.40;65.30;;;0.23;100.00;94618.63;4938509;28;20025;-57
2023/03/11 06:47:16;;;;;;;11.23;4.03;;;5.40;65.30;;;0.21;100.00;94620.69;4943606;28;20031;-53
2023/03/11 06:49:42;;;;;;;9.65;3.47;;;5.40;65.30;;;0.14;100.00;94613.94;4926010;28;20029;-52
2023/03/11 06:52:09;;;;;;;5.40;2.67;;;5.40;65.20;;;0.03;100.00;94625.16;4938543;28;20045;-49
2023/03/11 06:54:35;;;;;;;5.32;2.40;;;5.40;65.20;;;0.01;100.00;94622.00;4945179;28;20093;-52
2023/03/11 06:57:01;;;;;;;4.53;2.20;;;5.40;65.00;;;-0.03;100.00;94627.66;4947574;28;20026;-51
2023/03/11 06:59:30;;;;;;;3.53;2.25;;;5.40;64.90;;;-0.04;100.00;94627.88;4956063;28;20019;-52
2023/03/11 07:01:57;;;;;;;5.57;2.30;;;5.40;64.90;;;0.02;100.00;94629.59;4946595;28;20038;-49
2023/03/11 07:04:23;;;;;;;18.00;2.90;;;5.40;64.90;;;0.05;100.00;94631.78;4942033;28;20501;-55
2023/03/11 07:06:52;;;;;;;5.20;2.30;;;5.50;64.90;;;0.03;100.00;94631.19;4909703;28;20158;-49
2023/03/11 07:09:21;;;;;;;7.10;2.28;;;5.50;64.90;;;0.03;100.00;94633.03;4908149;28;20042;-52
2023/03/11 07:11:47;;;;;;;3.15;2.00;;;5.50;64.80;;;0.06;100.00;94629.97;4928993;28;20225;-49
2023/03/11 07:14:13;;;;;;;2.33;1.83;;;5.50;64.60;;;0.11;100.00;94632.72;4950914;28;20109;-50
2023/03/11 07:16:42;;;;;;;3.60;2.20;;;5.60;64.70;;;0.17;100.00;94644.94;4908322;28;22925;-50
2023/03/11 07:19:10;;;;;;;4.78;2.17;;;5.70;64.60;;;0.23;100.00;94650.06;4927463;29;20049;-54
2023/03/11 07:21:37;;;;;;;4.47;2.13;;;5.70;64.60;;;0.28;100.00;94653.84;4942180;28;20025;-50
2023/03/11 07:24:04;;;;;;;4.15;1.98;;;5.80;65.30;;;0.34;100.00;94650.31;4936034;28;20427;-49
2023/03/11 07:26:34;;;;;;;3.15;1.77;;;5.90;64.40;;;0.31;99.91;94653.41;4924878;29;20018;-51
2023/03/11 07:29:01;;;;;;;5.35;1.98;;;5.90;64.40;;;0.32;100.00;94649.78;4931953;29;20058;-50
2023/03/11 07:31:33;;;;;;;4.38;2.40;;;6.00;64.30;;;0.41;99.83;94649.22;4941951;29;20374;-48
2023/03/11 07:34:04;;;;;;;5.50;1.87;;;6.10;64.20;;;0.49;99.53;94642.06;4936107;29;20125;-54
2023/03/11 07:36:31;;;;;;;4.50;2.60;;;6.20;64.10;;;0.54;99.12;94643.00;4930052;29;20090;-50
2023/03/11 07:39:03;;;;;;;3.67;2.03;;;6.20;63.90;;;0.61;99.04;94646.31;4940552;29;20055;-55
2023/03/11 07:41:33;;;;;;;4.50;1.83;;;6.30;63.80;;;0.69;98.17;94647.81;4913132;29;20453;-52
2023/03/11 07:44:02;;;;;;;2.58;1.83;;;6.40;63.70;;;0.73;97.78;94638.47;4916125;29;20058;-50
2023/03/11 07:46:31;;;;;;;7.88;1.90;;;6.40;63.50;;;0.73;97.19;94633.22;4895085;29;20545;-53
2023/03/11 07:48:58;;;;;;;2.97;1.80;;;6.50;63.30;;;0.79;97.38;94634.16;4900819;29;20816;-50
2023/03/11 07:51:29;;;;;;;4.70;2.35;;;6.60;63.20;;;0.79;97.03;94637.56;4915210;29;20109;-48
2023/03/11 07:53:58;;;;;;;2.95;1.90;;;6.60;63.10;;;0.85;96.59;94644.53;4914222;29;20027;-52
2023/03/11 07:56:33;;;;;;;2.58;1.88;;;6.60;63.00;;;0.86;95.54;94645.31;4920970;29;20449;-51
2023/03/11 07:59:02;;;;;;;2.15;1.58;;;6.60;62.90;;;0.86;96.16;94645.31;4898099;29;20027;-49
2023/03/11 08:01:39;;;;;;;3.63;2.03;;;6.70;62.90;;;0.93;96.00;94649.41;4926371;29;20524;-49
2023/03/11 08:04:09;;;;;;;2.63;2.08;;;6.80;62.80;;;0.99;95.20;94646.94;4928430;29;20034;-53
2023/03/11 08:06:37;;;;;;;2.70;1.95;;;6.90;62.80;;;1.06;95.58;94651.03;4919593;29;20574;-51
2023/03/11 08:09:07;;;;;;;2.45;1.70;;;6.90;62.60;;;1.14;95.45;94671.69;4915454;29;20049;-49
2023/03/11 08:11:35;;;;;;;4.15;2.03;;;7.00;62.40;;;1.13;94.99;94672.72;4920765;29;20023;-51
2023/03/11 08:14:03;;;;;;;2.53;2.00;;;7.00;62.30;;;1.09;94.88;94661.06;4901985;29;20504;-55
2023/03/11 08:16:32;;;;;;;2.53;1.67;;;7.10;62.20;;;1.12;95.06;94660.59;4929462;29;20035;-53
2023/03/11 08:19:01;;;;;;;5.57;2.00;;;7.10;62.10;;;1.17;94.89;94669.63;4926181;29;20498;-53
2023/03/11 08:21:30;;;;;;;2.25;1.75;;;7.20;62.80;;;1.19;94.34;94676.22;4926364;29;20035;-50
2023/03/11 08:24:01;;;;;;;2.10;1.85;;;7.20;61.90;;;1.23;94.83;94692.34;4913745;29;20023;-56
2023/03/11 08:26:31;;;;;;;3.45;2.20;;;7.30;61.90;;;1.28;94.57;94687.97;4914265;29;20034;-49
2023/03/11 08:28:58;;;;;;;3.72;2.00;;;7.30;61.70;;;1.27;94.45;94691.66;4925980;29;20122;-52
2023/03/11 08:31:30;;;;;;;2.70;1.83;;;7.40;61.70;;;1.32;94.28;94696.22;4918444;29;20023;-53
2023/03/11 08:34:07;;;;;;;2.83;2.25;;;7.40;61.70;;;1.36;94.68;94702.59;4913083;29;20109;-49
2023/03/11 08:36:33;;;;;;;2.63;1.92;;;7.40;61.60;;;1.42;94.25;94701.69;4913614;29;20099;-57
2023/03/11 08:38:59;;;;;;;1.98;1.77;;;7.50;61.50;;;1.46;93.46;94708.06;4918895;29;20490;-50
2023/03/11 08:41:29;;;;;;;4.88;1.95;;;7.60;61.40;;;1.33;92.73;94709.09;4931819;28;20031;-49
2023/03/11 08:44:04;;;;;;;3.85;2.10;;;7.60;61.10;;;1.27;91.76;94701.34;4952066;28;20081;-50
2023/03/11 08:46:37;;;;;;;3.33;1.80;;;7.60;60.80;;;1.26;91.43;94705.00;4935214;28;20035;-52
2023/03/11 08:49:05;;;;;;;5.65;2.28;;;7.50;60.60;;;1.25;91.19;94712.06;4952840;28;20038;-52
2023/03/11 08:51:34;;;;;;;2.15;1.80;;;7.50;60.60;;;1.14;91.17;94711.03;4941255;28;20026;-52
2023/03/11 08:54:04;;;;;;;6.45;2.13;;;7.40;60.50;;;1.22;92.30;94714.34;4951487;28;20030;-49
2023/03/11 08:56:30;;;;;;;3.47;2.00;;;7.40;60.50;;;1.29;92.38;94718.47;4921075;28;20536;-52
2023/03/11 08:58:56;;;;;;;4.15;2.10;;;7.50;60.50;;;1.34;92.30;94723.81;4916734;28;20035;-55
2023/03/11 09:01:25;;;;;;;5.07;2.10;;;7.60;60.50;;;1.47;92.43;94720.16;4933336;28;20106;-55
2023/03/11 09:03:51;;;;;;;3.03;2.35;;;7.70;60.40;;;1.58;92.45;94722.00;4951290;28;20113;-51
2023/03/11 09:06:18;;;;;;;5.15;2.15;;;7.80;60.30;;;1.71;92.14;94725.41;4934692;28;20034;-54
2023/03/11 09:08:46;;;;;;;3.72;2.30;;;7.90;60.10;;;1.76;91.75;94715.03;4920547;28;20080;-55
2023/03/11 09:11:17;;;;;;;4.85;2.33;;;8.00;60.10;;;1.86;90.64;94725.75;4944291;28;20123;-55
2023/03/11 09:13:44;;;;;;;4.53;2.58;;;8.20;59.90;;;2.03;90.92;94723.19;4913461;28;20398;-50
2023/03/11 09:16:22;;;;;;;5.60;2.88;;;8.40;59.80;;;2.19;89.25;94719.84;4919103;28;20027;-50
2023/03/11 09:18:49;;;;;;;5.40;2.35;;;8.80;59.50;;;2.32;88.45;94726.69;4951586;28;20022;-52
2023/03/11 09:21:15;;;;;;;4.88;2.40;;;9.10;59.00;;;2.48;87.38;94722.50;4951468;28;20042;-54
2023/03/11 09:23:44;;;;;;;3.67;2.50;;;9.40;58.60;;;2.56;86.86;94735.25;4939469;28;20034;-50
2023/03/11 09:26:16;;;;;;;5.90;2.58;;;9.60;58.20;;;2.66;85.87;94732.81;4949203;28;20501;-54
2023/03/11 09:28:48;;;;;;;4.55;2.38;;;9.80;57.90;;;2.75;84.97;94726.13;4951019;28;20086;-53
2023/03/11 09:31:16;;;;;;;4.13;2.53;;;10.00;57.60;;;2.98;84.83;94733.13;4933014;28;20022;-55
2023/03/11 09:33:51;;;;;;;4.20;2.42;;;10.20;57.30;;;3.15;83.25;94737.59;4956279;28;20030;-52
2023/03/11 09:36:20;;;;;;;2.80;2.50;;;10.40;57.00;;;3.28;83.26;94747.03;4941515;28;20031;-51
2023/03/11 09:38:47;;;;;;;2.92;2.53;;;10.50;56.90;;;3.25;82.20;94748.28;4943379;28;20386;-54
2023/03/11 09:41:28;;;;;;;2.72;2.30;;;10.60;56.70;;;3.41;81.61;94744.06;4945558;28;20026;-54
2023/03/11 09:44:42;;;;;;;3.85;2.80;;;10.70;56.50;;;3.65;81.03;94756.03;4945347;28;20409;-51
2023/03/11 09:47:52;;;;;;;3.05;2.33;;;11.10;56.20;;;3.87;79.37;94757.94;4942295;28;20125;-55
2023/03/11 09:50:44;;;;;;;3.10;2.55;;;11.50;56.50;;;3.85;77.61;94767.91;4923529;28;20390;-54
2023/03/11 09:53:35;;;;;;;3.33;2.95;;;11.90;55.30;;;3.90;78.73;94760.06;4941681;28;20038;-56
2023/03/11 09:56:21;;;;;;;3.47;2.40;;;12.30;54.90;;;4.20;77.63;94772.06;4939284;28;20033;-55
2023/03/11 09:58:53;;;;;;;2.70;2.35;;;12.50;54.40;;;4.34;76.97;94766.19;4945956;28;20038;-56
2023/03/11 10:01:39;;;;;;;2.70;2.38;;;12.70;54.00;;;4.43;76.22;94766.56;4945113;28;20030;-52
2023/03/11 10:04:31;;;;;;;3.55;2.50;;;12.70;53.60;;;4.48;75.55;94764.00;4946788;28;20401;-53
2023/03/11 10:07:08;;;;;;;2.90;2.50;;;12.80;53.40;;;4.45;75.26;94763.66;4947037;28;20434;-55
2023/03/11 10:09:51;;;;;;;3.28;2.65;;;12.80;53.20;;;4.43;75.03;94768.41;4933188;28;20274;-52
2023/03/11 10:12:32;;;;;;;;;;;12.80;52.80;;;4.38;75.54;94772.56;4915357;28;20058;-55
2023/03/11 10:15:17;;;;;;;3.42;2.90;;;12.70;53.00;;;4.37;75.14;94778.88;4943165;28;20349;-52
2023/03/11 10:18:49;;;;;;;3.63;2.67;;;12.80;52.70;;;4.13;74.74;94773.03;4928372;28;20054;-54
2023/03/11 10:22:38;;;;;;;4.60;2.40;;;12.70;52.30;;;4.15;75.17;94770.16;4950442;23;20068;-56
2023/03/11 10:25:45;;;;;;;5.00;2.83;;;12.70;52.10;;;4.13;74.85;94765.13;4982963;28;20609;-55
2023/03/11 10:28:21;;;;;;;3.17;2.55;;;12.60;52.00;;;4.00;76.36;94762.84;4973560;28;20431;-56
2023/03/11 10:31:01;;;;;;;4.03;2.90;;;12.60;52.00;;;3.94;76.78;94763.81;4969050;28;20036;-58
2023/03/11 10:34:20;;;;;;;5.32;3.00;;;12.50;52.00;;;3.73;77.26;94770.66;4947872;28;20051;-55
2023/03/11 10:37:12;;;;;;;3.90;3.13;;;12.40;51.70;;;3.70;77.65;94766.66;4961827;28;20033;-53
2023/03/11 10:39:40;;;;;;;5.13;3.17;;;12.30;51.90;;;3.73;78.28;94768.00;4951120;28;20029;-57
2023/03/11 10:42:18;;;;;;;5.75;3.28;;;12.20;52.00;;;3.73;78.21;94768.00;4968036;28;20542;-56
2023/03/11 10:44:44;;;;;;;4.65;3.03;;;12.20;52.00;;;3.72;78.42;94769.03;4935652;28;20045;-57
2023/03/11 10:47:21;;;;;;;4.20;3.05;;;12.00;52.00;;;3.64;77.63;94772.88;4979604;28;20022;-55
2023/03/11 10:49:49;;;;;;;4.63;2.90;;;12.00;52.00;;;3.66;78.13;94770.78;4952570;28;20054;-59